createdAt,value
2022-12-14T00:01:21.673Z,-8.75
2022-12-14T00:03:32.345Z,-8.63
2022-12-14T00:05:34.441Z,-8.59
2022-12-14T00:07:37.277Z,-8.63
2022-12-14T00:09:39.196Z,-8.66
2022-12-14T00:11:42.308Z,-8.69
2022-12-14T00:13:45.534Z,-8.64
2022-12-14T00:15:53.088Z,-8.60
2022-12-14T00:17:56.521Z,-8.84
2022-12-14T00:19:58.446Z,-8.87
2022-12-14T00:22:00.312Z,-8.90
2022-12-14T00:24:02.358Z,-8.91
2022-12-14T00:26:27.794Z,-9.13
2022-12-14T00:28:30.721Z,-9.31
2022-12-14T00:30:32.626Z,-9.37
2022-12-14T00:32:35.676Z,-9.38
2022-12-14T00:34:38.627Z,-9.50
2022-12-14T00:36:40.515Z,-9.68
2022-12-14T00:38:43.413Z,-9.91
2022-12-14T00:40:56.426Z,-9.73
2022-12-14T00:43:12.257Z,-9.61
2022-12-14T00:45:21.459Z,-9.76
2022-12-14T00:47:26.491Z,-10.01
2022-12-14T00:49:30.476Z,-10.28
2022-12-14T00:51:32.434Z,-10.01
2022-12-14T00:53:38.375Z,-9.91
2022-12-14T00:55:44.485Z,-9.87
2022-12-14T00:57:53.619Z,-9.80
2022-12-14T01:00:02.526Z,-10.12
2022-12-14T01:02:06.032Z,-9.99
2022-12-14T01:04:21.818Z,-10.00
2022-12-14T01:06:23.866Z,-10.03
2022-12-14T01:08:35.959Z,-9.91
2022-12-14T01:10:41.220Z,-9.90
2022-12-14T01:12:43.389Z,-9.91
2022-12-14T01:14:46.512Z,-9.99
2022-12-14T01:16:49.457Z,-9.91
2022-12-14T01:18:51.399Z,-10.24
2022-12-14T01:21:18.628Z,-10.15
2022-12-14T01:23:20.554Z,-10.25
2022-12-14T01:25:22.624Z,-10.14
2022-12-14T01:27:24.490Z,-10.06
2022-12-14T01:29:26.399Z,-10.05
2022-12-14T01:31:33.437Z,-10.07
2022-12-14T01:33:39.747Z,-10.17
2022-12-14T01:35:41.641Z,-10.16
2022-12-14T01:37:43.521Z,-10.22
2022-12-14T01:39:45.436Z,-10.13
2022-12-14T01:41:50.402Z,-10.16
2022-12-14T01:43:56.631Z,-10.25
2022-12-14T01:46:04.352Z,-10.38
2022-12-14T01:48:11.954Z,-10.57
2022-12-14T01:50:35.798Z,-10.77
2022-12-14T01:52:45.320Z,-10.47
2022-12-14T01:55:02.299Z,-10.64
2022-12-14T01:57:04.518Z,-10.29
2022-12-14T01:59:12.177Z,-10.27
2022-12-14T02:01:15.515Z,-10.49
2022-12-14T02:03:31.671Z,-10.44
2022-12-14T02:05:38.324Z,-10.42
2022-12-14T02:07:42.826Z,-10.78
2022-12-14T02:09:56.190Z,-10.61
2022-12-14T02:12:10.171Z,-10.68
2022-12-14T02:14:15.566Z,-10.69
2022-12-14T02:16:19.625Z,-10.74
2022-12-14T02:18:27.886Z,-10.81
2022-12-14T02:20:44.621Z,-10.94
2022-12-14T02:23:22.269Z,-10.87
2022-12-14T02:25:40.105Z,-11.23
2022-12-14T02:28:09.691Z,-11.14
2022-12-14T02:30:20.695Z,-11.18
2022-12-14T02:32:42.486Z,-11.13
2022-12-14T02:35:04.306Z,-11.08
2022-12-14T02:37:18.168Z,-11.09
2022-12-14T02:39:57.370Z,-11.28
2022-12-14T02:42:17.597Z,-11.93
2022-12-14T02:45:01.647Z,-11.98
2022-12-14T02:47:23.525Z,-11.72
2022-12-14T02:49:28.348Z,-11.83
2022-12-14T02:51:37.353Z,-11.92
2022-12-14T02:53:55.046Z,-11.87
2022-12-14T02:56:02.656Z,-11.74
2022-12-14T02:58:29.125Z,-11.90
2022-12-14T03:00:34.075Z,-12.04
2022-12-14T03:02:38.832Z,-12.07
2022-12-14T03:04:47.732Z,-12.33
2022-12-14T03:07:03.810Z,-12.43
2022-12-14T03:09:13.774Z,-12.01
2022-12-14T03:11:23.939Z,-12.14
2022-12-14T03:14:01.712Z,-12.30
2022-12-14T03:16:16.245Z,-11.98
2022-12-14T03:18:21.923Z,-12.32
2022-12-14T03:20:29.536Z,-12.25
2022-12-14T03:22:51.083Z,-12.12
2022-12-14T03:24:58.894Z,-12.38
2022-12-14T03:27:15.831Z,-12.45
2022-12-14T03:29:28.376Z,-12.41
2022-12-14T03:31:48.898Z,-12.18
2022-12-14T03:33:56.073Z,-12.52
2022-12-14T03:36:13.334Z,-12.84
2022-12-14T03:38:34.087Z,-12.51
2022-12-14T03:41:12.122Z,-12.44
2022-12-14T03:43:17.584Z,-12.52
2022-12-14T03:45:28.909Z,-12.30
2022-12-14T03:47:59.285Z,-12.45
2022-12-14T03:50:01.114Z,-11.96
2022-12-14T03:52:09.973Z,-12.78
2022-12-14T03:54:20.074Z,-12.57
2022-12-14T03:56:35.735Z,-12.38
2022-12-14T03:59:16.775Z,-12.43
2022-12-14T04:01:46.589Z,-12.06
2022-12-14T04:04:22.557Z,-12.13
2022-12-14T04:06:44.153Z,-12.23
2022-12-14T04:09:08.428Z,-11.96
2022-12-14T04:11:38.866Z,-12.13
2022-12-14T04:14:05.533Z,-12.12
2022-12-14T04:16:33.802Z,-11.69
2022-12-14T04:19:00.510Z,-11.52
2022-12-14T04:21:11.884Z,-11.71
2022-12-14T04:23:41.178Z,-11.91
2022-12-14T04:26:05.762Z,-11.86
2022-12-14T04:28:44.877Z,-11.54
2022-12-14T04:30:49.081Z,-11.57
2022-12-14T04:33:25.142Z,-11.56
2022-12-14T04:35:37.030Z,-11.60
2022-12-14T04:37:42.943Z,-11.54
2022-12-14T04:39:56.639Z,-11.49
2022-12-14T04:42:03.019Z,-11.53
2022-12-14T04:44:24.309Z,-11.60
2022-12-14T04:46:35.192Z,-11.58
2022-12-14T04:49:21.565Z,-11.52
2022-12-14T04:51:41.619Z,-11.56
2022-12-14T04:53:47.213Z,-11.59
2022-12-14T04:56:05.759Z,-11.95
2022-12-14T04:58:38.546Z,-12.42
2022-12-14T05:00:58.275Z,-12.32
2022-12-14T05:03:33.344Z,-12.23
2022-12-14T05:05:42.727Z,-12.64
2022-12-14T05:08:20.631Z,-12.76
2022-12-14T05:10:50.771Z,-12.83
2022-12-14T05:13:05.412Z,-12.76
2022-12-14T05:15:23.569Z,-12.74
2022-12-14T05:17:27.948Z,-12.94
2022-12-14T05:20:00.140Z,-12.96
2022-12-14T05:22:17.886Z,-12.71
2022-12-14T05:24:28.995Z,-13.12
2022-12-14T05:26:32.158Z,-13.37
2022-12-14T05:28:39.143Z,-13.47
2022-12-14T05:30:41.128Z,-13.53
2022-12-14T05:32:43.061Z,-13.14
2022-12-14T05:34:46.053Z,-12.94
2022-12-14T05:36:48.174Z,-12.91
2022-12-14T05:38:52.214Z,-13.06
2022-12-14T05:40:54.167Z,-13.10
2022-12-14T05:43:08.086Z,-13.02
2022-12-14T05:45:29.925Z,-13.40
2022-12-14T05:47:31.855Z,-13.61
2022-12-14T05:49:42.058Z,-13.28
2022-12-14T05:51:44.950Z,-13.59
2022-12-14T05:53:49.910Z,-13.10
2022-12-14T05:55:53.931Z,-13.14
2022-12-14T05:58:03.794Z,-13.15
2022-12-14T06:00:06.086Z,-13.22
2022-12-14T06:02:17.032Z,-12.99
2022-12-14T06:04:21.179Z,-12.96
2022-12-14T06:06:33.799Z,-12.67
2022-12-14T06:08:38.290Z,-12.87
2022-12-14T06:10:50.462Z,-12.88
2022-12-14T06:12:59.150Z,-12.67
2022-12-14T06:15:04.824Z,-12.57
2022-12-14T06:17:14.907Z,-12.62
2022-12-14T06:19:20.933Z,-12.63
2022-12-14T06:21:29.674Z,-12.72
2022-12-14T06:23:31.642Z,-12.73
2022-12-14T06:25:33.657Z,-12.64
2022-12-14T06:27:35.881Z,-12.67
2022-12-14T06:29:47.081Z,-12.85
2022-12-14T06:32:01.805Z,-13.10
2022-12-14T06:34:03.889Z,-13.35
2022-12-14T06:36:06.181Z,-13.47
2022-12-14T06:38:10.309Z,-13.79
2022-12-14T06:40:13.829Z,-13.53
2022-12-14T06:42:28.935Z,-13.28
2022-12-14T06:44:32.097Z,-13.65
2022-12-14T06:46:36.457Z,-14.03
2022-12-14T06:48:38.820Z,-13.87
2022-12-14T06:50:42.806Z,-13.72
2022-12-14T06:52:52.349Z,-13.91
2022-12-14T06:54:59.293Z,-13.47
2022-12-14T06:57:06.573Z,-14.19
2022-12-14T06:59:25.286Z,-14.36
2022-12-14T07:01:34.369Z,-14.12
2022-12-14T07:03:41.365Z,-14.08
2022-12-14T07:05:56.804Z,-14.08
2022-12-14T07:08:12.969Z,-14.19
2022-12-14T07:10:24.057Z,-13.85
2022-12-14T07:12:29.162Z,-13.85
2022-12-14T07:14:36.304Z,-13.85
2022-12-14T07:16:42.590Z,-13.75
2022-12-14T07:18:50.741Z,-13.87
2022-12-14T07:21:22.150Z,-13.79
2022-12-14T07:23:34.272Z,-13.54
2022-12-14T07:25:36.539Z,-13.61
2022-12-14T07:27:38.571Z,-13.51
2022-12-14T07:29:56.692Z,-13.31
2022-12-14T07:32:00.036Z,-13.34
2022-12-14T07:34:13.166Z,-13.35
2022-12-14T07:36:19.637Z,-13.45
2022-12-14T07:38:22.612Z,-13.32
2022-12-14T07:40:25.726Z,-13.31
2022-12-14T07:42:30.667Z,-13.08
2022-12-14T07:44:40.433Z,-13.19
2022-12-14T07:46:54.132Z,-13.00
2022-12-14T07:48:57.983Z,-12.70
2022-12-14T07:51:17.336Z,-12.52
2022-12-14T07:53:37.499Z,-11.88
2022-12-14T07:55:39.444Z,-11.97
2022-12-14T07:57:58.385Z,-11.90
2022-12-14T08:00:14.107Z,-11.14
2022-12-14T08:02:18.188Z,-10.56
2022-12-14T08:04:22.745Z,-10.33
2022-12-14T08:06:40.638Z,-10.33
2022-12-14T08:08:51.953Z,-9.77
2022-12-14T08:10:59.014Z,-9.72
2022-12-14T08:13:02.942Z,-9.55
2022-12-14T08:15:07.597Z,-9.20
2022-12-14T08:17:12.493Z,-8.97
2022-12-14T08:19:20.061Z,-8.67
2022-12-14T08:21:30.229Z,-8.42
2022-12-14T08:23:37.243Z,-8.44
2022-12-14T08:25:39.246Z,-8.20
2022-12-14T08:27:49.064Z,-7.91
2022-12-14T08:29:53.032Z,-7.64
2022-12-14T08:32:04.079Z,-7.67
2022-12-14T08:34:08.642Z,-7.63
2022-12-14T08:36:29.371Z,-7.48
2022-12-14T08:38:33.433Z,-7.59
2022-12-14T08:40:38.832Z,-7.32
2022-12-14T08:42:51.022Z,-7.21
2022-12-14T08:44:53.065Z,-6.89
2022-12-14T08:46:57.187Z,-6.77
2022-12-14T08:49:03.767Z,-6.63
2022-12-14T08:51:10.776Z,-6.46
2022-12-14T08:53:28.923Z,-6.46
2022-12-14T08:55:38.937Z,-6.04
2022-12-14T08:57:41.101Z,-6.13
2022-12-14T09:00:01.215Z,-6.37
2022-12-14T09:02:06.042Z,-6.09
2022-12-14T09:04:09.140Z,-5.86
2022-12-14T09:06:25.280Z,-5.65
2022-12-14T09:08:27.306Z,-5.94
2022-12-14T09:10:30.654Z,-5.83
2022-12-14T09:12:39.681Z,-5.83
2022-12-14T09:14:46.730Z,-5.67
2022-12-14T09:17:01.726Z,-5.45
2022-12-14T09:19:20.221Z,-5.59
2022-12-14T09:21:36.213Z,-5.45
2022-12-14T09:23:40.101Z,-5.47
2022-12-14T09:25:47.474Z,-5.47
2022-12-14T09:27:57.077Z,-4.95
2022-12-14T09:29:59.016Z,-4.70
2022-12-14T09:32:03.069Z,-4.77
2022-12-14T09:34:07.689Z,-5.23
2022-12-14T09:36:28.253Z,-5.09
2022-12-14T09:38:34.945Z,-5.17
2022-12-14T09:40:42.922Z,-5.13
2022-12-14T09:43:06.331Z,-5.26
2022-12-14T09:45:35.648Z,-5.23
2022-12-14T09:48:06.199Z,-5.07
2022-12-14T09:50:17.861Z,-4.83
2022-12-14T09:52:24.221Z,-4.74
2022-12-14T09:54:38.685Z,-4.94
2022-12-14T09:56:47.853Z,-5.04
2022-12-14T09:58:57.055Z,-5.03
2022-12-14T10:01:19.666Z,-4.84
2022-12-14T10:03:46.013Z,-4.74
2022-12-14T10:06:22.264Z,-4.76
2022-12-14T10:08:28.409Z,-4.77
2022-12-14T10:11:15.736Z,-4.74
2022-12-14T10:13:36.810Z,-4.56
2022-12-14T10:16:21.378Z,-4.68
2022-12-14T10:19:03.627Z,-4.62
2022-12-14T10:21:24.114Z,-4.45
2022-12-14T10:23:27.965Z,-4.48
2022-12-14T10:25:34.383Z,-4.41
2022-12-14T10:28:09.161Z,-4.22
2022-12-14T10:30:21.430Z,-4.42
2022-12-14T10:32:41.455Z,-4.49
2022-12-14T10:34:52.622Z,-4.44
2022-12-14T10:37:02.878Z,-4.58
2022-12-14T10:39:24.540Z,-4.54
2022-12-14T10:42:08.203Z,-4.46
2022-12-14T10:44:29.721Z,-4.58
2022-12-14T10:46:42.872Z,-4.56
2022-12-14T10:49:36.927Z,-4.68
2022-12-14T10:51:45.094Z,-4.61
2022-12-14T10:53:52.346Z,-4.57
2022-12-14T10:56:01.248Z,-4.69
2022-12-14T10:58:11.727Z,-4.68
2022-12-14T11:00:23.140Z,-4.56
2022-12-14T11:02:43.144Z,-4.54
2022-12-14T11:05:13.030Z,-4.55
2022-12-14T11:07:21.566Z,-4.54
2022-12-14T11:09:45.304Z,-4.57
2022-12-14T11:11:48.319Z,-4.47
2022-12-14T11:14:10.291Z,-4.46
2022-12-14T11:16:30.288Z,-4.44
2022-12-14T11:18:55.597Z,-4.40
2022-12-14T11:21:06.755Z,-4.33
2022-12-14T11:23:36.619Z,-4.42
2022-12-14T11:25:48.877Z,-4.34
2022-12-14T11:28:22.081Z,-4.40
2022-12-14T11:30:29.237Z,-4.41
2022-12-14T11:32:38.494Z,-4.32
2022-12-14T11:34:54.012Z,-4.33
2022-12-14T11:36:56.073Z,-4.38
2022-12-14T11:39:14.108Z,-4.44
2022-12-14T11:41:22.412Z,-4.62
2022-12-14T11:43:33.968Z,-4.70
2022-12-14T11:45:41.041Z,-4.64
2022-12-14T11:47:45.049Z,-4.58
2022-12-14T11:49:49.738Z,-4.56
2022-12-14T11:52:19.997Z,-4.60
2022-12-14T11:54:22.985Z,-4.54
2022-12-14T11:56:25.791Z,-4.54
2022-12-14T11:58:36.682Z,-4.53
2022-12-14T12:01:03.236Z,-4.54
2022-12-14T12:03:28.324Z,-4.54
2022-12-14T12:05:41.947Z,-4.42
2022-12-14T12:07:50.899Z,-4.51
2022-12-14T12:09:53.425Z,-4.50
2022-12-14T12:12:20.565Z,-4.48
2022-12-14T12:14:35.930Z,-4.51
2022-12-14T12:16:42.435Z,-4.43
2022-12-14T12:19:12.953Z,-4.32
2022-12-14T12:21:30.470Z,-4.37
2022-12-14T12:23:51.698Z,-4.36
2022-12-14T12:25:58.929Z,-4.35
2022-12-14T12:28:09.285Z,-4.38
2022-12-14T12:30:19.634Z,-4.43
2022-12-14T12:32:36.158Z,-4.35
2022-12-14T12:34:57.130Z,-4.38
2022-12-14T12:37:25.812Z,-4.39
2022-12-14T12:39:28.709Z,-4.48
2022-12-14T12:41:59.298Z,-4.49
2022-12-14T12:44:36.452Z,-4.51
2022-12-14T12:47:22.390Z,-4.50
2022-12-14T12:49:15.100Z,-4.63
2022-12-14T12:51:25.625Z,-4.61
2022-12-14T12:53:48.350Z,-4.59
2022-12-14T12:55:59.276Z,-4.53
2022-12-14T12:58:03.392Z,-4.53
2022-12-14T13:00:19.235Z,-4.60
2022-12-14T13:02:42.905Z,-4.61
2022-12-14T13:04:52.434Z,-4.66
2022-12-14T13:07:23.054Z,-4.62
2022-12-14T13:10:14.013Z,-5.52
2022-12-14T13:12:42.605Z,-5.68
2022-12-14T13:14:53.200Z,-5.81
2022-12-14T13:17:01.582Z,-5.87
2022-12-14T13:19:50.643Z,-5.93
2022-12-14T13:22:05.863Z,-5.94
2022-12-14T13:24:17.783Z,-5.99
2022-12-14T13:27:05.692Z,-6.05
2022-12-14T13:29:25.891Z,-6.09
2022-12-14T13:31:55.364Z,-6.14
2022-12-14T13:34:06.997Z,-6.16
2022-12-14T13:36:34.025Z,-6.19
2022-12-14T13:39:09.678Z,-6.23
2022-12-14T13:41:40.281Z,-6.14
2022-12-14T13:44:43.613Z,-6.20
2022-12-14T13:47:05.981Z,-6.27
2022-12-14T13:49:19.570Z,-6.28
2022-12-14T13:51:40.795Z,-6.34
2022-12-14T13:53:57.238Z,-6.37
2022-12-14T13:56:03.034Z,-6.38
2022-12-14T13:58:42.062Z,-6.47
2022-12-14T14:00:51.350Z,-6.54
2022-12-14T14:02:57.597Z,-6.56
2022-12-14T14:05:37.839Z,-6.60
2022-12-14T14:08:03.889Z,-6.72
2022-12-14T14:10:32.305Z,-6.74
2022-12-14T14:12:42.158Z,-6.76
2022-12-14T14:14:55.001Z,-6.81
2022-12-14T14:17:03.705Z,-6.93
2022-12-14T14:19:23.280Z,-6.98
2022-12-14T14:22:32.290Z,-6.98
2022-12-14T14:24:24.544Z,-7.09
2022-12-14T14:26:34.960Z,-7.22
2022-12-14T14:28:44.157Z,-7.33
2022-12-14T14:30:57.169Z,-7.25
2022-12-14T14:33:35.885Z,-7.30
2022-12-14T14:35:51.672Z,-7.41
2022-12-14T14:38:05.194Z,-7.45
2022-12-14T14:40:50.889Z,-7.57
2022-12-14T14:43:30.837Z,-7.56
2022-12-14T14:45:50.578Z,-7.57
2022-12-14T14:47:59.562Z,-7.52
2022-12-14T14:50:22.745Z,-7.59
2022-12-14T14:53:08.454Z,-7.51
2022-12-14T14:58:35.527Z,-7.58
2022-12-14T15:01:21.444Z,-7.61
2022-12-14T15:03:45.914Z,-7.63
2022-12-14T15:05:58.549Z,-7.67
2022-12-14T15:08:03.607Z,-7.69
2022-12-14T15:10:22.266Z,-7.66
2022-12-14T15:12:37.146Z,-7.71
2022-12-14T15:14:48.949Z,-7.65
2022-12-14T15:16:51.249Z,-7.68
2022-12-14T15:18:55.427Z,-7.64
2022-12-14T15:21:20.313Z,-7.70
2022-12-14T15:23:24.841Z,-7.66
2022-12-14T15:25:30.636Z,-7.68
2022-12-14T15:27:35.066Z,-7.65
2022-12-14T15:29:38.105Z,-7.60
2022-12-14T15:31:45.167Z,-7.63
2022-12-14T15:33:53.056Z,-7.64
2022-12-14T15:36:03.705Z,-7.21
2022-12-14T15:38:09.366Z,-7.06
2022-12-14T15:40:16.753Z,-7.05
2022-12-14T15:42:22.912Z,-6.99
2022-12-14T15:44:31.922Z,-6.95
2022-12-14T15:46:41.629Z,-6.97
2022-12-14T15:48:44.693Z,-7.01
2022-12-14T15:51:13.469Z,-7.03
2022-12-14T15:53:29.715Z,-6.98
2022-12-14T15:55:42.520Z,-7.03
2022-12-14T15:57:46.973Z,-6.92
2022-12-14T16:00:00.014Z,-6.90
2022-12-14T16:02:29.533Z,-6.81
2022-12-14T16:04:32.106Z,-6.85
2022-12-14T16:06:40.912Z,-6.84
2022-12-14T16:08:48.792Z,-6.86
2022-12-14T16:10:58.162Z,-6.81
2022-12-14T16:13:24.381Z,-6.74
2022-12-14T16:15:36.254Z,-6.78
2022-12-14T16:17:39.183Z,-6.80
2022-12-14T16:20:00.653Z,-6.77
2022-12-14T16:22:24.622Z,-6.78
2022-12-14T16:24:27.585Z,-6.78
2022-12-14T16:26:38.957Z,-6.81
2022-12-14T16:28:41.258Z,-6.84
2022-12-14T16:31:15.619Z,-6.75
2022-12-14T16:33:21.208Z,-6.77
2022-12-14T16:35:32.433Z,-6.74
2022-12-14T16:37:35.157Z,-6.83
2022-12-14T16:39:40.161Z,-6.81
2022-12-14T16:41:57.381Z,-6.85
2022-12-14T16:44:02.017Z,-6.89
2022-12-14T16:46:04.209Z,-6.76
2022-12-14T16:48:14.378Z,-6.80
2022-12-14T16:50:54.957Z,-6.80
2022-12-14T16:53:21.835Z,-6.80
2022-12-14T16:55:26.565Z,-6.73
2022-12-14T16:57:33.062Z,-6.83
2022-12-14T16:59:46.144Z,-6.77
2022-12-14T17:01:51.145Z,-6.70
2022-12-14T17:04:06.806Z,-6.77
2022-12-14T17:06:19.215Z,-6.75
2022-12-14T17:08:21.917Z,-6.78
2022-12-14T17:10:27.222Z,-6.74
2022-12-14T17:12:30.806Z,-6.74
2022-12-14T17:14:33.208Z,-6.74
2022-12-14T17:16:35.665Z,-6.78
2022-12-14T17:18:41.686Z,-6.65
2022-12-14T17:20:50.159Z,-6.62
2022-12-14T17:23:02.081Z,-6.61
2022-12-14T17:25:05.799Z,-6.55
2022-12-14T17:27:22.707Z,-6.55
2022-12-14T17:29:29.043Z,-6.57
2022-12-14T17:31:32.873Z,-6.50
2022-12-14T17:33:36.746Z,-6.51
2022-12-14T17:35:39.399Z,-6.49
2022-12-14T17:37:42.960Z,-6.52
2022-12-14T17:39:46.327Z,-6.43
2022-12-14T17:41:50.279Z,-6.41
2022-12-14T17:43:57.763Z,-6.38
2022-12-14T17:46:01.796Z,-6.47
2022-12-14T17:48:19.677Z,-6.37
2022-12-14T17:50:26.543Z,-6.32
2022-12-14T17:52:32.572Z,-6.29
2022-12-14T17:54:37.017Z,-6.29
2022-12-14T17:56:39.519Z,-6.23
2022-12-14T17:58:45.607Z,-6.16
2022-12-14T18:01:02.721Z,-6.14
2022-12-14T18:03:11.134Z,-6.29
2022-12-14T18:05:20.061Z,-6.23
2022-12-14T18:07:22.856Z,-6.17
2022-12-14T18:09:27.678Z,-6.07
2022-12-14T18:11:30.563Z,-6.08
2022-12-14T18:13:35.436Z,-6.12
2022-12-14T18:15:50.113Z,-6.16
2022-12-14T18:17:54.230Z,-6.18
2022-12-14T18:20:05.232Z,-6.08
2022-12-14T18:22:10.333Z,-6.06
2022-12-14T18:24:25.908Z,-5.98
2022-12-14T18:26:30.527Z,-6.00
2022-12-14T18:28:37.119Z,-5.96
2022-12-14T18:30:51.432Z,-5.99
2022-12-14T18:32:56.577Z,-6.04
2022-12-14T18:35:00.473Z,-5.97
2022-12-14T18:37:07.248Z,-5.99
2022-12-14T18:39:09.859Z,-5.92
2022-12-14T18:41:19.247Z,-5.96
2022-12-14T18:43:24.949Z,-6.04
2022-12-14T18:45:32.944Z,-5.96
2022-12-14T18:47:41.919Z,-5.88
2022-12-14T18:49:46.356Z,-5.76
2022-12-14T18:51:50.520Z,-5.84
2022-12-14T18:54:00.754Z,-5.84
2022-12-14T18:56:07.920Z,-5.81
2022-12-14T18:58:47.889Z,-5.84
2022-12-14T19:00:55.467Z,-5.78
2022-12-14T19:03:02.908Z,-5.80
2022-12-14T19:05:12.044Z,-5.80
2022-12-14T19:07:16.739Z,-5.81
2022-12-14T19:09:23.370Z,-5.86
2022-12-14T19:11:43.147Z,-5.78
2022-12-14T19:13:48.131Z,-5.69
2022-12-14T19:15:55.561Z,-5.76
2022-12-14T19:17:59.223Z,-5.79
2022-12-14T19:20:03.655Z,-5.72
2022-12-14T19:22:09.195Z,-5.70
2022-12-14T19:24:15.757Z,-5.64
2022-12-14T19:26:20.432Z,-5.67
2022-12-14T19:28:32.842Z,-5.61
2022-12-14T19:30:36.671Z,-5.60
2022-12-14T19:32:42.683Z,-5.57
2022-12-14T19:34:50.494Z,-5.58
2022-12-14T19:36:53.575Z,-5.58
2022-12-14T19:38:57.614Z,-5.62
2022-12-14T19:41:04.746Z,-5.65
2022-12-14T19:43:12.314Z,-5.58
2022-12-14T19:45:17.161Z,-5.59
2022-12-14T19:47:22.003Z,-5.50
2022-12-14T19:49:26.255Z,-5.52
2022-12-14T19:51:32.572Z,-5.49
2022-12-14T19:53:40.175Z,-5.52
2022-12-14T19:55:51.194Z,-5.48
2022-12-14T19:57:55.747Z,-5.51
2022-12-14T20:00:00.920Z,-5.52
2022-12-14T20:02:06.310Z,-5.52
2022-12-14T20:04:11.568Z,-5.51
2022-12-14T20:06:15.278Z,-5.52
2022-12-14T20:08:20.660Z,-5.53
2022-12-14T20:10:31.310Z,-5.47
2022-12-14T20:12:36.550Z,-5.62
2022-12-14T20:14:44.739Z,-5.53
2022-12-14T20:16:53.222Z,-5.53
2022-12-14T20:19:08.059Z,-5.56
2022-12-14T20:21:18.530Z,-5.46
2022-12-14T20:23:29.625Z,-5.49
2022-12-14T20:25:33.089Z,-5.61
2022-12-14T20:27:40.774Z,-5.55
2022-12-14T20:29:45.343Z,-5.44
2022-12-14T20:31:49.662Z,-5.48
2022-12-14T20:33:56.942Z,-5.45
2022-12-14T20:36:01.348Z,-5.52
2022-12-14T20:38:07.255Z,-5.47
2022-12-14T20:40:12.223Z,-5.53
2022-12-14T20:42:19.008Z,-5.59
2022-12-14T20:44:26.632Z,-5.45
2022-12-14T20:46:37.366Z,-5.42
2022-12-14T20:48:48.867Z,-5.38
2022-12-14T20:51:03.958Z,-5.34
2022-12-14T20:53:07.978Z,-5.37
2022-12-14T20:55:13.450Z,-5.32
2022-12-14T20:57:16.629Z,-5.35
2022-12-14T20:59:20.759Z,-5.35
2022-12-14T21:01:26.129Z,-5.31
2022-12-14T21:03:37.692Z,-5.24
2022-12-14T21:06:00.792Z,-5.25
2022-12-14T21:08:03.377Z,-5.25
2022-12-14T21:10:08.372Z,-5.24
2022-12-14T21:12:22.891Z,-5.25
2022-12-14T21:14:27.965Z,-5.19
2022-12-14T21:16:30.937Z,-5.24
2022-12-14T21:18:32.992Z,-5.20
2022-12-14T21:20:36.930Z,-5.23
2022-12-14T21:26:06.093Z,-5.22
2022-12-14T21:28:28.858Z,-5.12
2022-12-14T21:30:36.969Z,-5.13
2022-12-14T21:32:49.369Z,-5.15
2022-12-14T21:35:38.792Z,-5.14
2022-12-14T21:37:41.164Z,-5.06
2022-12-14T21:40:04.059Z,-5.01
2022-12-14T21:42:15.869Z,-5.01
2022-12-14T21:44:30.607Z,-5.02
2022-12-14T21:47:10.814Z,-5.00
2022-12-14T21:49:44.180Z,-4.96
2022-12-14T21:52:18.856Z,-4.92
2022-12-14T21:54:50.591Z,-4.96
2022-12-14T21:57:38.485Z,-4.86
2022-12-14T21:59:51.230Z,-4.86
2022-12-14T22:02:17.764Z,-5.16
2022-12-14T22:04:39.813Z,-5.26
2022-12-14T22:06:46.065Z,-5.06
2022-12-14T22:09:00.418Z,-5.01
2022-12-14T22:11:06.518Z,-5.15
2022-12-14T22:13:33.240Z,-5.18
2022-12-14T22:15:43.693Z,-5.23
2022-12-14T22:17:50.017Z,-5.22
2022-12-14T22:19:54.500Z,-5.20
2022-12-14T22:22:05.846Z,-5.13
2022-12-14T22:24:20.858Z,-5.14
2022-12-14T22:26:24.085Z,-5.18
2022-12-14T22:28:31.162Z,-5.16
2022-12-14T22:30:45.417Z,-5.15
2022-12-14T22:33:00.428Z,-5.10
2022-12-14T22:35:21.638Z,-5.11
2022-12-14T22:37:32.839Z,-5.14
2022-12-14T22:40:01.392Z,-5.13
2022-12-14T22:42:10.751Z,-5.14
2022-12-14T22:44:13.854Z,-5.09
2022-12-14T22:46:38.950Z,-5.10
2022-12-14T22:48:41.901Z,-5.14
2022-12-14T22:50:50.951Z,-5.11
2022-12-14T22:53:02.811Z,-5.14
2022-12-14T22:55:24.555Z,-5.11
2022-12-14T22:57:26.840Z,-5.12
2022-12-14T22:59:53.533Z,-5.16
2022-12-14T23:01:59.319Z,-5.16
2022-12-14T23:04:15.110Z,-5.14
2022-12-14T23:06:21.694Z,-5.11
2022-12-14T23:08:32.719Z,-5.15
2022-12-14T23:11:01.999Z,-5.14
2022-12-14T23:13:24.561Z,-5.10
2022-12-14T23:15:46.298Z,-5.19
2022-12-14T23:18:33.442Z,-5.14
2022-12-14T23:20:59.361Z,-5.17
2022-12-14T23:23:24.612Z,-5.10
2022-12-14T23:26:01.960Z,-5.18
2022-12-14T23:28:32.201Z,-5.19
2022-12-14T23:31:01.879Z,-5.14
2022-12-14T23:33:33.516Z,-5.23
2022-12-14T23:35:53.773Z,-5.30
2022-12-14T23:38:14.384Z,-5.32
2022-12-14T23:40:35.931Z,-5.27
2022-12-14T23:43:35.722Z,-5.21
2022-12-14T23:46:14.670Z,-5.26
2022-12-14T23:48:34.977Z,-5.21
2022-12-14T23:51:13.548Z,-5.27
2022-12-14T23:53:35.822Z,-5.28
2022-12-14T23:56:03.381Z,-5.27
2022-12-14T23:58:26.929Z,-5.32
